Time;durP1;ratioP1;P1;durP2;ratioP2;P2;SDS_P1;SDS_P2;PMS_P1;PMS_P2;Temp;Humidity;BMP_temperature;BMP_pressure;BME280_temperature;BME280_humidity;BME280_pressure;Samples;Min_cycle;Max_cycle;Signal;HPM_P1;HPM_P2
2023/03/03 00:00:43;;;;;;;;;;;;;;;15.58;60.08;98500.22;2070473;28;19979;-57
2023/03/03 00:01:44;;;;;;;;;;;;;;;15.59;60.14;98499.19;2070848;28;20761;-57
2023/03/03 00:02:45;;;;;;;;;;;;;;;15.60;60.24;98500.03;2071107;28;20013;-58
2023/03/03 00:03:46;;;;;;;;;;;;;;;15.57;60.19;98498.59;2075119;28;19979;-52
2023/03/03 00:04:47;;;;;;;;;;;;;;;15.58;60.09;98499.41;2074566;28;19929;-51
2023/03/03 00:05:49;;;;;;;;;;;;;;;15.60;60.05;98514.25;2067657;28;19937;-58
2023/03/03 00:06:51;;;;;;;;;;;;;;;15.56;60.03;98510.28;2070886;28;21035;-55
2023/03/03 00:07:51;;;;;;;;;;;;;;;15.55;60.19;98510.47;2071967;28;21030;-53
2023/03/03 00:08:53;;;;;;;;;;;;;;;15.54;60.12;98509.63;2073624;28;20015;-51
2023/03/03 00:09:53;;;;;;;;;;;;;;;15.54;60.29;98508.81;2071733;28;19987;-55
2023/03/03 00:10:55;;;;;;;;;;;;;;;15.52;60.24;98510.84;2071654;28;21502;-49
2023/03/03 00:11:57;;;;;;;;;;;;;;;15.55;60.09;98510.47;2072949;28;19933;-54
2023/03/03 00:13:00;;;;;;;;;;;;;;;15.55;60.17;98511.31;2070458;28;19925;-53
2023/03/03 00:14:00;;;;;;;;;;;;;;;15.56;60.10;98504.09;2071559;28;20385;-51
2023/03/03 00:15:02;;;;;;;;;;;;;;;15.52;60.30;98505.50;2073760;28;19972;-53
2023/03/03 00:16:12;;;;;;;;;;;;;;;15.54;60.03;98506.13;2072780;28;22484;-51
2023/03/03 00:17:17;;;;;;;;;;;;;;;15.51;60.13;98506.50;2070515;28;21214;-53
2023/03/03 00:18:22;;;;;;;;;;;;;;;15.53;60.04;98501.81;2068206;28;19929;-53
2023/03/03 00:19:23;;;;;;;;;;;;;;;15.52;60.24;98500.16;2070257;28;19926;-52
2023/03/03 00:20:35;;;;;;;;;;;;;;;15.54;60.01;98508.81;2070874;28;20409;-52
2023/03/03 00:21:41;;;;;;;;;;;;;;;15.53;60.16;98505.31;2070241;28;19936;-51
2023/03/03 00:22:43;;;;;;;;;;;;;;;15.53;60.04;98507.16;2070579;28;19933;-52
2023/03/03 00:23:43;;;;;;;;;;;;;;;15.54;60.03;98503.44;2069952;28;19933;-52
2023/03/03 00:24:46;;;;;;;;;;;;;;;15.53;60.07;98499.13;2069925;28;19929;-53
2023/03/03 00:25:48;;;;;;;;;;;;;;;15.53;60.04;98504.47;2072173;28;19932;-51
2023/03/03 00:26:51;;;;;;;;;;;;;;;15.52;60.09;98502.84;2072953;28;19929;-52
2023/03/03 00:27:51;;;;;;;;;;;;;;;15.52;60.07;98501.00;2074150;28;19960;-53
2023/03/03 00:28:54;;;;;;;;;;;;;;;15.53;60.02;98499.13;2074062;28;19933;-49
2023/03/03 00:29:55;;;;;;;;;;;;;;;15.50;60.07;98499.50;2070466;28;20056;-51
2023/03/03 00:30:58;;;;;;;;;;;;;;;15.50;60.18;98496.84;2068927;28;19932;-52
2023/03/03 00:32:11;;;;;;;;;;;;;;;15.52;60.00;98497.50;2066800;28;19933;-54
2023/03/03 00:33:20;;;;;;;;;;;;;;;15.51;60.07;98491.28;2069892;28;19975;-52
2023/03/03 00:34:23;;;;;;;;;;;;;;;15.50;59.96;98494.16;2071700;28;19929;-55
2023/03/03 00:35:27;;;;;;;;;;;;;;;15.51;60.06;98495.81;2069931;28;19936;-52
2023/03/03 00:36:31;;;;;;;;;;;;;;;15.47;60.15;98494.53;2073423;28;20043;-60
2023/03/03 00:37:35;;;;;;;;;;;;;;;15.44;60.18;98497.59;2071422;28;19937;-53
2023/03/03 00:38:35;;;;;;;;;;;;;;;15.44;60.22;98500.25;2070703;28;19933;-54
2023/03/03 00:39:37;;;;;;;;;;;;;;;15.44;60.05;98497.59;2072337;28;19971;-53
2023/03/03 00:40:38;;;;;;;;;;;;;;;15.45;60.08;98493.88;2071013;28;19983;-54
2023/03/03 00:41:40;;;;;;;;;;;;;;;15.45;60.05;98496.56;2069736;28;20670;-52
2023/03/03 00:42:41;;;;;;;;;;;;;;;15.42;60.17;98495.91;2073417;28;19987;-54
2023/03/03 00:43:42;;;;;;;;;;;;;;;15.44;60.18;98489.56;2071236;28;20020;-53
2023/03/03 00:44:44;;;;;;;;;;;;;;;15.42;60.19;98490.56;2067209;28;19963;-52
2023/03/03 00:45:46;;;;;;;;;;;;;;;15.42;60.12;98493.25;2067377;28;19933;-54
2023/03/03 00:46:47;;;;;;;;;;;;;;;15.41;60.06;98488.91;2070746;28;19933;-51
2023/03/03 00:47:48;;;;;;;;;;;;;;;15.44;60.12;98489.56;2072969;28;19982;-54
2023/03/03 00:48:51;;;;;;;;;;;;;;;15.41;60.06;98485.44;2074449;28;21751;-54
2023/03/03 00:49:52;;;;;;;;;;;;;;;15.39;60.12;98490.94;2067769;28;20019;-54
2023/03/03 00:50:54;;;;;;;;;;;;;;;15.42;60.08;98487.91;2070952;28;21009;-52
2023/03/03 00:51:54;;;;;;;;;;;;;;;15.42;60.10;98487.91;2072374;28;19964;-52
2023/03/03 00:53:03;;;;;;;;;;;;;;;15.42;60.14;98484.41;2070699;28;19925;-52
2023/03/03 00:54:04;;;;;;;;;;;;;;;15.41;60.02;98491.59;2070503;28;20347;-52
2023/03/03 00:55:05;;;;;;;;;;;;;;;15.41;60.14;98494.25;2069284;28;20581;-53
2023/03/03 00:56:07;;;;;;;;;;;;;;;15.40;60.04;98486.41;2067318;28;19929;-53
2023/03/03 00:57:07;;;;;;;;;;;;;;;15.40;60.19;98494.44;2071960;28;20611;-54
2023/03/03 00:58:09;;;;;;;;;;;;;;;15.39;60.04;98490.94;2073218;28;19976;-52
2023/03/03 00:59:10;;;;;;;;;;;;;;;15.40;59.99;98494.44;2073490;28;19960;-56
2023/03/03 01:00:12;;;;;;;;;;;;;;;15.40;60.12;98494.44;2070011;28;19941;-55
2023/03/03 01:01:12;;;;;;;;;;;;;;;15.41;59.91;98499.63;2071972;28;19978;-50
2023/03/03 01:02:14;;;;;;;;;;;;;;;15.42;59.90;98487.91;2068191;28;20334;-51
2023/03/03 01:03:16;;;;;;;;;;;;;;;15.38;60.00;98489.28;2071475;28;19929;-56
2023/03/03 01:04:17;;;;;;;;;;;;;;;15.40;60.03;98489.09;2069163;28;19933;-50
2023/03/03 01:05:18;;;;;;;;;;;;;;;15.41;59.97;98485.44;2069674;28;19929;-53
2023/03/03 01:06:20;;;;;;;;;;;;;;;15.39;59.97;98498.97;2073952;28;19956;-55
2023/03/03 01:07:20;;;;;;;;;;;;;;;15.38;60.03;98491.97;2070342;28;19929;-57
2023/03/03 01:08:23;;;;;;;;;;;;;;;15.38;60.14;98489.28;2072607;28;19929;-56
2023/03/03 01:09:23;;;;;;;;;;;;;;;15.38;60.01;98491.16;2073254;28;19979;-54
2023/03/03 01:10:26;;;;;;;;;;;;;;;15.37;60.12;98492.13;2072092;28;19963;-50
2023/03/03 01:11:27;;;;;;;;;;;;;;;15.37;60.06;98492.13;2071651;28;19925;-56
2023/03/03 01:12:28;;;;;;;;;;;;;;;15.36;60.17;98488.66;2073117;28;20492;-52
2023/03/03 01:13:30;;;;;;;;;;;;;;;15.36;60.07;98485.97;2072802;28;20325;-51
2023/03/03 01:14:31;;;;;;;;;;;;;;;15.39;59.92;98485.59;2070811;28;20011;-49
2023/03/03 01:15:32;;;;;;;;;;;;;;;15.37;59.99;98474.25;2062268;28;19941;-56
2023/03/03 01:16:34;;;;;;;;;;;;;;;15.37;59.94;98479.59;2065317;28;19929;-53
2023/03/03 01:17:34;;;;;;;;;;;;;;;15.36;59.94;98485.16;2071741;28;20561;-54
2023/03/03 01:18:37;;;;;;;;;;;;;;;15.36;60.04;98491.31;2070594;28;19929;-54
2023/03/03 01:19:37;;;;;;;;;;;;;;;15.38;60.01;98483.13;2072586;28;19991;-54
2023/03/03 01:20:39;;;;;;;;;;;;;;;15.35;59.95;98483.47;2068107;28;20431;-54
2023/03/03 01:21:39;;;;;;;;;;;;;;;15.32;60.11;98479.34;2065615;28;19987;-56
2023/03/03 01:22:40;;;;;;;;;;;;;;;15.32;60.02;98481.19;2072124;28;20371;-53
2023/03/03 01:23:42;;;;;;;;;;;;;;;15.31;60.00;98483.03;2070059;28;20938;-51
2023/03/03 01:24:44;;;;;;;;;;;;;;;15.28;60.06;98483.41;2072991;28;20036;-52
2023/03/03 01:25:44;;;;;;;;;;;;;;;15.31;59.95;98482.19;2072587;28;19932;-49
2023/03/03 01:26:46;;;;;;;;;;;;;;;15.31;60.08;98484.88;2071973;28;19925;-56
2023/03/03 01:27:46;;;;;;;;;;;;;;;15.29;60.07;98478.88;2072484;28;19933;-52
2023/03/03 01:28:47;;;;;;;;;;;;;;;15.33;59.96;98481.00;2071049;28;19925;-47
2023/03/03 01:29:48;;;;;;;;;;;;;;;15.32;59.86;98473.16;2068964;28;20084;-52
2023/03/03 01:30:49;;;;;;;;;;;;;;;15.31;59.90;98472.34;2067907;28;20841;-50
2023/03/03 01:31:50;;;;;;;;;;;;;;;15.32;60.07;98478.50;2068812;28;19940;-56
2023/03/03 01:32:52;;;;;;;;;;;;;;;15.30;60.02;98469.88;2074275;28;19968;-52
2023/03/03 01:33:52;;;;;;;;;;;;;;;15.28;60.11;98477.22;2069951;28;19987;-52
2023/03/03 01:34:54;;;;;;;;;;;;;;;15.28;60.11;98478.06;2069070;28;19933;-50
2023/03/03 01:35:55;;;;;;;;;;;;;;;15.28;60.13;98478.06;2071280;28;20276;-53
2023/03/03 01:36:55;;;;;;;;;;;;;;;15.27;60.03;98471.06;2067845;28;19929;-54
2023/03/03 01:37:57;;;;;;;;;;;;;;;15.30;60.05;98469.88;2068819;28;19979;-50
2023/03/03 01:38:59;;;;;;;;;;;;;;;15.30;59.96;98468.03;2071924;28;19929;-57
2023/03/03 01:40:01;;;;;;;;;;;;;;;15.29;59.93;98465.50;2070111;28;19968;-54
2023/03/03 01:41:01;;;;;;;;;;;;;;;15.27;59.98;98465.72;2071004;28;20015;-55
2023/03/03 01:42:03;;;;;;;;;;;;;;;15.25;60.14;98467.75;2072901;28;19929;-56
2023/03/03 01:43:04;;;;;;;;;;;;;;;15.26;60.04;98468.56;2069851;28;20032;-57
2023/03/03 01:44:05;;;;;;;;;;;;;;;15.28;59.99;98463.88;2069885;28;19929;-52
2023/03/03 01:45:13;;;;;;;;;;;;;;;15.27;60.04;98468.41;2069052;28;20401;-55
2023/03/03 01:46:45;;;;;;;;;;;;;;;15.26;59.92;98461.38;2072116;28;19936;-49
2023/03/03 01:47:47;;;;;;;;;;;;;;;15.25;59.96;98462.41;2068468;28;19936;-55
2023/03/03 01:48:49;;;;;;;;;;;;;;;15.26;59.92;98461.38;2071537;28;20097;-53
2023/03/03 01:49:54;;;;;;;;;;;;;;;15.23;60.06;98461.75;2072996;28;22212;-58
2023/03/03 01:50:57;;;;;;;;;;;;;;;15.25;59.88;98462.41;2070269;28;21376;-54
2023/03/03 01:52:00;;;;;;;;;;;;;;;15.22;60.06;98459.28;2073868;28;19928;-55
2023/03/03 01:53:02;;;;;;;;;;;;;;;15.22;59.96;98457.44;2067318;28;19933;-54
2023/03/03 01:54:09;;;;;;;;;;;;;;;15.23;60.07;98464.41;2072622;28;19933;-55
2023/03/03 01:55:13;;;;;;;;;;;;;;;15.20;59.96;98460.28;2070108;28;19929;-53
2023/03/03 01:56:14;;;;;;;;;;;;;;;15.23;59.90;98456.41;2069713;28;19929;-56
2023/03/03 01:57:18;;;;;;;;;;;;;;;15.22;60.08;98457.44;2072849;28;19933;-56
2023/03/03 01:58:22;;;;;;;;;;;;;;;15.23;59.82;98459.06;2070891;28;20402;-53
2023/03/03 01:59:24;;;;;;;;;;;;;;;15.23;60.03;98459.06;2070358;28;23150;-57
2023/03/03 02:00:25;;;;;;;;;;;;;;;15.25;59.85;98461.56;2072489;28;19941;-55
2023/03/03 02:01:28;;;;;;;;;;;;;;;15.26;59.81;98460.56;2069694;28;20552;-52
2023/03/03 02:02:28;;;;;;;;;;;;;;;15.21;60.02;98461.13;2069144;28;19980;-56
2023/03/03 02:03:30;;;;;;;;;;;;;;;15.22;59.96;98456.59;2073154;28;20334;-54
2023/03/03 02:04:31;;;;;;;;;;;;;;;15.24;59.89;98455.41;2067865;28;19929;-54
2023/03/03 02:05:33;;;;;;;;;;;;;;;15.21;59.97;98453.13;2066173;28;19933;-54
2023/03/03 02:06:36;;;;;;;;;;;;;;;15.23;59.82;98456.41;2067211;28;19933;-55
2023/03/03 02:07:38;;;;;;;;;;;;;;;15.25;59.99;98456.22;2069168;28;19944;-54
2023/03/03 02:08:41;;;;;;;;;;;;;;;15.20;59.96;98454.94;2072043;28;19925;-54
2023/03/03 02:09:49;;;;;;;;;;;;;;;15.20;59.97;98451.44;2070373;28;19929;-54
2023/03/03 02:10:50;;;;;;;;;;;;;;;15.23;59.92;98455.59;2070523;28;19929;-54
2023/03/03 02:11:54;;;;;;;;;;;;;;;15.19;59.87;98450.63;2072407;28;19964;-55
2023/03/03 02:12:56;;;;;;;;;;;;;;;15.19;59.96;98447.13;2069637;28;19944;-53
2023/03/03 02:13:58;;;;;;;;;;;;;;;15.19;59.97;98452.47;2070643;28;19928;-55
2023/03/03 02:14:58;;;;;;;;;;;;;;;15.19;59.97;98447.13;2070122;28;19929;-54
2023/03/03 02:16:00;;;;;;;;;;;;;;;15.21;59.85;98450.44;2072756;28;19926;-53
2023/03/03 02:17:00;;;;;;;;;;;;;;;15.20;59.88;98457.59;2071842;28;19986;-53
2023/03/03 02:18:04;;;;;;;;;;;;;;;15.19;59.78;98449.78;2060987;28;19929;-56
2023/03/03 02:19:08;;;;;;;;;;;;;;;15.20;59.89;98454.09;2070627;28;20570;-52
2023/03/03 02:20:13;;;;;;;;;;;;;;;15.19;59.88;98452.47;2070520;28;19964;-54
2023/03/03 02:21:15;;;;;;;;;;;;;;;15.17;59.92;98454.47;2071488;28;19933;-55
2023/03/03 02:22:21;;;;;;;;;;;;;;;15.19;59.75;98460.47;2067755;28;20453;-56
2023/03/03 02:23:25;;;;;;;;;;;;;;;15.20;59.76;98454.09;2068351;28;19952;-55
2023/03/03 02:24:28;;;;;;;;;;;;;;;15.17;59.94;98455.31;2071869;28;20278;-55
2023/03/03 02:25:33;;;;;;;;;;;;;;;15.15;59.98;98451.16;2070562;28;19929;-54
2023/03/03 02:26:39;;;;;;;;;;;;;;;15.15;59.79;98453.81;2072482;28;20492;-55
2023/03/03 02:27:39;;;;;;;;;;;;;;;15.17;59.88;98452.63;2072404;28;19952;-56
2023/03/03 02:28:41;;;;;;;;;;;;;;;15.15;59.90;98456.50;2070434;28;19956;-57
2023/03/03 02:29:41;;;;;;;;;;;;;;;15.16;59.82;98453.66;2067576;28;20035;-57
2023/03/03 02:30:43;;;;;;;;;;;;;;;15.17;59.85;98455.31;2071846;28;19933;-52
2023/03/03 02:31:44;;;;;;;;;;;;;;;15.14;59.91;98452.19;2071732;28;19929;-51
2023/03/03 02:32:45;;;;;;;;;;;;;;;15.16;59.80;98455.50;2071603;28;20473;-51
2023/03/03 02:33:48;;;;;;;;;;;;;;;15.14;59.77;98455.69;2069798;28;20304;-53
2023/03/03 02:34:50;;;;;;;;;;;;;;;15.12;59.95;98454.19;2067910;28;19933;-51
2023/03/03 02:35:51;;;;;;;;;;;;;;;15.12;59.92;98448.88;2067012;28;19929;-55
2023/03/03 02:36:53;;;;;;;;;;;;;;;15.10;59.89;98457.06;2056896;28;20003;-57
2023/03/03 02:37:55;;;;;;;;;;;;;;;15.13;59.89;98456.69;2066527;28;19978;-53
2023/03/03 02:39:02;;;;;;;;;;;;;;;15.13;59.91;98453.22;2063133;28;20230;-56
2023/03/03 02:40:04;;;;;;;;;;;;;;;15.13;59.85;98451.38;2067538;28;20398;-50
2023/03/03 02:41:10;;;;;;;;;;;;;;;15.13;59.80;98454.03;2067553;28;19929;-54
2023/03/03 02:42:15;;;;;;;;;;;;;;;15.12;59.83;98456.88;2067647;28;19991;-57
2023/03/03 02:43:19;;;;;;;;;;;;;;;15.11;59.79;98445.38;2072932;28;19971;-55
2023/03/03 02:44:20;;;;;;;;;;;;;;;15.12;59.72;98451.53;2068936;28;20338;-53
2023/03/03 02:45:22;;;;;;;;;;;;;;;15.11;59.72;98450.72;2069618;28;19960;-53
2023/03/03 02:46:22;;;;;;;;;;;;;;;15.12;59.70;98446.19;2066644;28;20004;-56
2023/03/03 02:47:24;;;;;;;;;;;;;;;15.14;59.82;98454.84;2061890;28;19933;-51
2023/03/03 02:48:24;;;;;;;;;;;;;;;15.11;59.92;98444.53;2068499;28;20374;-55
2023/03/03 02:49:27;;;;;;;;;;;;;;;15.09;59.90;98446.56;2063142;28;19929;-56
2023/03/03 02:50:27;;;;;;;;;;;;;;;15.09;59.87;98449.22;2068897;28;19929;-54
2023/03/03 02:51:29;;;;;;;;;;;;;;;15.10;59.69;98450.88;2066362;28;19986;-55
2023/03/03 02:52:29;;;;;;;;;;;;;;;15.10;59.82;98450.88;2068504;28;19940;-54
2023/03/03 02:53:31;;;;;;;;;;;;;;;15.10;59.75;98448.22;2068059;28;19929;-53
2023/03/03 02:54:31;;;;;;;;;;;;;;;15.10;59.85;98442.88;2067570;28;20619;-52
2023/03/03 02:55:33;;;;;;;;;;;;;;;15.11;59.80;98450.72;2065580;28;19976;-57
2023/03/03 02:56:34;;;;;;;;;;;;;;;15.10;59.85;98449.06;2063303;28;19959;-57
2023/03/03 02:57:36;;;;;;;;;;;;;;;15.11;59.68;98445.38;2064629;28;19987;-54
2023/03/03 02:58:37;;;;;;;;;;;;;;;15.08;59.80;98452.94;2064288;28;19933;-53
2023/03/03 02:59:38;;;;;;;;;;;;;;;15.10;59.63;98450.88;2064111;28;19933;-51
2023/03/03 03:00:39;;;;;;;;;;;;;;;15.10;59.67;98454.41;2064950;28;19956;-53
2023/03/03 03:01:40;;;;;;;;;;;;;;;15.09;59.82;98446.56;2062271;28;19933;-54
2023/03/03 03:02:41;;;;;;;;;;;;;;;15.07;59.81;98453.94;2065578;28;19937;-55
2023/03/03 03:03:42;;;;;;;;;;;;;;;15.08;59.77;98456.44;2069684;28;20358;-54
2023/03/03 03:04:43;;;;;;;;;;;;;;;15.06;59.82;98453.09;2073269;28;20467;-53
2023/03/03 03:05:44;;;;;;;;;;;;;;;15.06;59.80;98446.94;2063787;28;19956;-54
2023/03/03 03:06:45;;;;;;;;;;;;;;;15.06;59.74;98447.75;2065706;28;20015;-53
2023/03/03 03:07:46;;;;;;;;;;;;;;;15.04;59.89;98448.94;2064648;28;19936;-53
2023/03/03 03:08:47;;;;;;;;;;;;;;;15.05;59.80;98445.28;2064936;28;20701;-54
2023/03/03 03:09:48;;;;;;;;;;;;;;;15.06;59.83;98452.28;2061382;28;20312;-50
2023/03/03 03:10:49;;;;;;;;;;;;;;;15.05;59.65;98448.78;2069740;28;19933;-54
2023/03/03 03:11:51;;;;;;;;;;;;;;;15.05;59.79;98451.44;2070825;28;19969;-53
2023/03/03 03:12:52;;;;;;;;;;;;;;;15.08;59.69;98453.75;2068431;28;19964;-53
2023/03/03 03:13:54;;;;;;;;;;;;;;;15.04;59.67;98447.09;2064623;28;21027;-53
2023/03/03 03:14:54;;;;;;;;;;;;;;;15.04;59.65;98446.28;2067160;28;20956;-52
2023/03/03 03:15:56;;;;;;;;;;;;;;;15.05;59.67;98439.94;2067990;28;19929;-55
2023/03/03 03:16:56;;;;;;;;;;;;;;;15.05;59.74;98445.28;2065553;28;19929;-54
2023/03/03 03:17:58;;;;;;;;;;;;;;;15.04;59.78;98449.78;2064431;28;20022;-56
2023/03/03 03:18:59;;;;;;;;;;;;;;;15.06;59.71;98446.94;2065884;28;19940;-52
2023/03/03 03:20:00;;;;;;;;;;;;;;;15.03;59.79;98442.78;2063745;28;19933;-53
2023/03/03 03:21:08;;;;;;;;;;;;;;;15.01;59.80;98436.78;2065271;28;20507;-54
2023/03/03 03:22:09;;;;;;;;;;;;;;;15.01;59.86;98444.00;2063249;28;19980;-55
2023/03/03 03:23:10;;;;;;;;;;;;;;;15.01;59.86;98444.00;2067944;28;19936;-56
2023/03/03 03:24:12;;;;;;;;;;;;;;;15.00;59.69;98442.34;2065577;28;20016;-56
2023/03/03 03:25:12;;;;;;;;;;;;;;;15.00;59.93;98447.69;2063841;28;19990;-53
2023/03/03 03:26:14;;;;;;;;;;;;;;;14.99;59.88;98446.84;2065101;28;19942;-53
2023/03/03 03:27:14;;;;;;;;;;;;;;;15.01;59.78;98444.00;2064485;28;19941;-54
2023/03/03 03:28:18;;;;;;;;;;;;;;;15.01;59.80;98447.47;2065456;28;19979;-55
2023/03/03 03:29:18;;;;;;;;;;;;;;;15.00;59.84;98442.34;2064910;28;19925;-54
2023/03/03 03:30:21;;;;;;;;;;;;;;;15.02;59.59;98445.66;2062454;28;20316;-53
2023/03/03 03:31:22;;;;;;;;;;;;;;;15.03;59.56;98439.28;2062526;28;19932;-52
2023/03/03 03:32:23;;;;;;;;;;;;;;;15.03;59.75;98447.31;2063487;28;19930;-53
2023/03/03 03:33:24;;;;;;;;;;;;;;;15.00;59.63;98443.16;2066707;28;19933;-52
2023/03/03 03:34:25;;;;;;;;;;;;;;;15.02;59.72;98445.66;2064435;28;19974;-54
2023/03/03 03:35:26;;;;;;;;;;;;;;;15.01;59.73;98450.16;2070291;28;19940;-52
2023/03/03 03:36:27;;;;;;;;;;;;;;;15.03;59.56;98447.31;2065289;28;19929;-54
2023/03/03 03:37:28;;;;;;;;;;;;;;;15.01;59.70;98452.00;2071961;28;19940;-57
2023/03/03 03:38:30;;;;;;;;;;;;;;;15.00;59.65;98453.84;2066397;28;20012;-52
2023/03/03 03:39:30;;;;;;;;;;;;;;;14.98;59.73;98448.69;2061596;28;19965;-54
2023/03/03 03:40:32;;;;;;;;;;;;;;;15.01;59.65;98454.66;2068200;28;19933;-55
2023/03/03 03:41:32;;;;;;;;;;;;;;;15.00;59.69;98455.69;2065503;28;19925;-52
2023/03/03 03:42:34;;;;;;;;;;;;;;;15.01;59.67;98444.81;2063443;28;19933;-50
2023/03/03 03:43:36;;;;;;;;;;;;;;;15.03;59.54;98449.97;2062626;28;19929;-54
2023/03/03 03:44:37;;;;;;;;;;;;;;;15.01;59.49;98446.66;2063640;28;20680;-53
2023/03/03 03:45:38;;;;;;;;;;;;;;;14.98;59.71;98450.53;2066004;28;19929;-54
2023/03/03 03:46:40;;;;;;;;;;;;;;;14.97;59.66;98447.03;2073504;28;19929;-55
2023/03/03 03:47:40;;;;;;;;;;;;;;;14.99;59.53;98444.19;2069491;28;20010;-55
2023/03/03 03:48:41;;;;;;;;;;;;;;;15.00;59.62;98447.69;2067343;28;19975;-57
2023/03/03 03:49:42;;;;;;;;;;;;;;;14.98;59.63;98446.00;2064082;28;19925;-52
2023/03/03 03:50:43;;;;;;;;;;;;;;;14.98;59.69;98451.34;2065321;28;19978;-53
2023/03/03 03:51:45;;;;;;;;;;;;;;;14.96;59.57;98447.22;2063362;28;19994;-52
2023/03/03 03:52:45;;;;;;;;;;;;;;;14.94;59.80;98447.41;2069880;28;20006;-53
2023/03/03 03:53:47;;;;;;;;;;;;;;;14.94;59.67;98452.75;2066341;28;19987;-53
2023/03/03 03:54:47;;;;;;;;;;;;;;;14.93;59.63;98450.25;2067516;28;20452;-53
2023/03/03 03:55:49;;;;;;;;;;;;;;;14.92;59.68;98452.09;2067384;28;19936;-57
2023/03/03 03:56:49;;;;;;;;;;;;;;;14.95;59.60;98445.56;2063768;28;20337;-55
2023/03/03 03:57:51;;;;;;;;;;;;;;;14.96;59.48;98448.06;2068353;28;19940;-52
2023/03/03 03:58:52;;;;;;;;;;;;;;;14.96;59.49;98448.06;2060314;28;19960;-55
2023/03/03 03:59:54;;;;;;;;;;;;;;;14.95;59.70;98451.72;2065047;28;19933;-55
2023/03/03 04:00:54;;;;;;;;;;;;;;;14.96;59.69;98450.72;2071500;28;20402;-54
2023/03/03 04:01:56;;;;;;;;;;;;;;;14.97;59.66;98451.53;2064984;28;19929;-54
2023/03/03 04:02:56;;;;;;;;;;;;;;;14.92;59.58;98452.09;2069798;28;19932;-53
2023/03/03 04:03:58;;;;;;;;;;;;;;;14.94;59.70;98458.09;2063648;28;20304;-54
2023/03/03 04:04:58;;;;;;;;;;;;;;;14.94;59.56;98450.06;2065746;28;19974;-55
2023/03/03 04:06:00;;;;;;;;;;;;;;;14.96;59.46;98441.88;2065953;28;20014;-55
2023/03/03 04:07:00;;;;;;;;;;;;;;;14.93;59.69;98451.09;2061816;28;20447;-55
2023/03/03 04:08:01;;;;;;;;;;;;;;;14.91;59.58;98445.09;2066963;28;19987;-52
2023/03/03 04:09:02;;;;;;;;;;;;;;;14.91;59.67;98450.44;2065864;28;19929;-55
2023/03/03 04:10:04;;;;;;;;;;;;;;;14.90;59.70;98446.09;2069629;28;20354;-54
2023/03/03 04:11:05;;;;;;;;;;;;;;;14.89;59.63;98449.78;2067886;28;19933;-54
2023/03/03 04:12:06;;;;;;;;;;;;;;;14.92;59.59;98445.94;2065358;28;20051;-54
2023/03/03 04:13:07;;;;;;;;;;;;;;;14.90;59.73;98445.28;2066951;28;19933;-54
2023/03/03 04:14:09;;;;;;;;;;;;;;;14.92;59.64;98451.25;2064312;28;19929;-54
2023/03/03 04:15:11;;;;;;;;;;;;;;;14.90;59.54;98443.41;2064984;28;20280;-54
2023/03/03 04:16:13;;;;;;;;;;;;;;;14.94;59.52;98450.06;2064781;28;20557;-54
2023/03/03 04:17:15;;;;;;;;;;;;;;;14.95;59.39;98450.91;2072429;28;19978;-54
2023/03/03 04:18:16;;;;;;;;;;;;;;;14.93;59.49;98442.22;2065958;28;19937;-54
2023/03/03 04:19:17;;;;;;;;;;;;;;;14.94;59.57;98441.25;2065184;28;19955;-51
2023/03/03 04:20:18;;;;;;;;;;;;;;;14.94;59.59;98444.72;2062793;28;19933;-51
2023/03/03 04:21:20;;;;;;;;;;;;;;;14.95;59.44;98445.56;2070100;28;20566;-56
2023/03/03 04:22:21;;;;;;;;;;;;;;;14.95;59.48;98446.38;2066724;28;19929;-54
2023/03/03 04:23:22;;;;;;;;;;;;;;;14.96;59.31;98439.22;2063781;28;19966;-53
2023/03/03 04:24:23;;;;;;;;;;;;;;;14.94;59.47;98444.72;2063263;28;19987;-56
2023/03/03 04:25:25;;;;;;;;;;;;;;;14.95;59.37;98446.38;2062267;28;19986;-52
2023/03/03 04:26:25;;;;;;;;;;;;;;;14.97;59.39;98439.00;2069117;28;19933;-56
2023/03/03 04:27:27;;;;;;;;;;;;;;;14.98;59.35;98446.00;2068052;28;19925;-53
2023/03/03 04:28:27;;;;;;;;;;;;;;;15.00;59.39;98437.00;2063012;28;28165;-53
2023/03/03 04:29:30;;;;;;;;;;;;;;;14.98;59.44;98443.34;2066212;28;19929;-54
2023/03/03 04:30:31;;;;;;;;;;;;;;;14.98;59.29;98440.66;2066690;28;20018;-52
2023/03/03 04:31:32;;;;;;;;;;;;;;;14.95;59.17;98430.34;2068049;28;19948;-54
2023/03/03 04:32:33;;;;;;;;;;;;;;;14.97;59.44;98439.00;2069608;28;20342;-56
2023/03/03 04:33:35;;;;;;;;;;;;;;;14.96;59.42;98436.56;2066312;28;19929;-54
2023/03/03 04:34:35;;;;;;;;;;;;;;;14.97;59.46;98435.53;2070145;28;19968;-53
2023/03/03 04:35:37;;;;;;;;;;;;;;;14.97;59.35;98433.69;2070286;28;20286;-54
2023/03/03 04:36:38;;;;;;;;;;;;;;;15.01;59.43;98435.97;2071800;28;19990;-52
2023/03/03 04:37:39;;;;;;;;;;;;;;;15.05;59.29;98439.94;2070891;28;19964;-54
2023/03/03 04:38:40;;;;;;;;;;;;;;;15.07;59.17;98436.09;2070844;28;19933;-55
2023/03/03 04:39:41;;;;;;;;;;;;;;;15.08;59.14;98435.06;2068847;28;19929;-54
2023/03/03 04:40:42;;;;;;;;;;;;;;;15.13;59.20;98435.34;2070464;28;20044;-52
2023/03/03 04:41:43;;;;;;;;;;;;;;;15.16;59.08;98442.16;2071678;28;20464;-56
2023/03/03 04:42:44;;;;;;;;;;;;;;;15.19;59.15;98442.59;2069732;28;19929;-54
2023/03/03 04:43:45;;;;;;;;;;;;;;;15.25;59.18;98440.19;2069883;28;20715;-53
2023/03/03 04:44:47;;;;;;;;;;;;;;;15.28;59.13;98439.81;2070269;28;19933;-56
2023/03/03 04:45:48;;;;;;;;;;;;;;;15.31;59.07;98440.28;2072175;28;20345;-57
2023/03/03 04:46:49;;;;;;;;;;;;;;;15.35;59.08;98441.56;2070190;28;19929;-54
2023/03/03 04:47:50;;;;;;;;;;;;;;;15.38;59.06;98437.69;2069507;28;21288;-54
2023/03/03 04:48:51;;;;;;;;;;;;;;;15.41;58.81;98435.47;2073675;28;19933;-56
2023/03/03 04:49:51;;;;;;;;;;;;;;;15.42;59.02;98436.28;2073435;28;19933;-54
2023/03/03 04:50:53;;;;;;;;;;;;;;;15.45;58.99;98437.75;2073358;28;21579;-53
2023/03/03 04:51:54;;;;;;;;;;;;;;;15.48;58.92;98440.06;2069932;28;19959;-57
2023/03/03 04:52:55;;;;;;;;;;;;;;;15.50;58.99;98436.19;2070416;28;19963;-54
2023/03/03 04:53:55;;;;;;;;;;;;;;;15.53;58.89;98440.31;2066783;28;20606;-54
2023/03/03 04:54:57;;;;;;;;;;;;;;;15.56;58.92;98439.94;2069637;28;19971;-54
2023/03/03 04:55:57;;;;;;;;;;;;;;;15.58;58.77;98443.28;2068151;28;20357;-51
2023/03/03 04:56:59;;;;;;;;;;;;;;;15.60;58.81;98439.41;2074203;28;19975;-55
2023/03/03 04:57:59;;;;;;;;;;;;;;;15.62;58.76;98436.50;2071806;28;19933;-54
2023/03/03 04:59:01;;;;;;;;;;;;;;;15.65;58.67;98438.81;2069030;28;19933;-53
2023/03/03 05:00:03;;;;;;;;;;;;;;;15.65;58.65;98434.28;2072008;28;20792;-56
2023/03/03 05:01:05;;;;;;;;;;;;;;;15.69;58.70;98436.63;2068964;28;20124;-54
2023/03/03 05:02:05;;;;;;;;;;;;;;;15.70;58.71;98432.94;2069427;28;20028;-57
2023/03/03 05:03:07;;;;;;;;;;;;;;;15.70;58.67;98433.75;2071157;28;21291;-53
2023/03/03 05:04:07;;;;;;;;;;;;;;;15.73;58.56;98433.38;2068784;28;20831;-57
2023/03/03 05:05:10;;;;;;;;;;;;;;;15.76;58.57;98437.50;2072017;28;19987;-57
2023/03/03 05:06:10;;;;;;;;;;;;;;;15.76;58.48;98433.00;2069144;28;20397;-52
2023/03/03 05:07:11;;;;;;;;;;;;;;;15.77;58.50;98429.31;2071499;28;19929;-56
2023/03/03 05:08:12;;;;;;;;;;;;;;;15.76;58.49;98433.00;2069258;28;20585;-52
2023/03/03 05:09:14;;;;;;;;;;;;;;;15.77;58.46;98429.31;2069196;28;19987;-55
2023/03/03 05:10:14;;;;;;;;;;;;;;;15.80;58.54;98428.13;2071394;28;19928;-58
2023/03/03 05:11:16;;;;;;;;;;;;;;;15.81;58.50;98437.78;2073137;28;19929;-58
2023/03/03 05:12:16;;;;;;;;;;;;;;;15.80;58.50;98431.59;2072785;28;19933;-59
2023/03/03 05:13:17;;;;;;;;;;;;;;;15.81;58.55;98427.09;2072870;28;19995;-57
2023/03/03 05:14:18;;;;;;;;;;;;;;;15.82;58.61;98429.59;2071629;28;19936;-57
2023/03/03 05:15:21;;;;;;;;;;;;;;;15.83;58.61;98436.56;2072226;28;19925;-56
2023/03/03 05:16:21;;;;;;;;;;;;;;;15.85;58.58;98431.88;2073842;28;19929;-52
2023/03/03 05:17:23;;;;;;;;;;;;;;;15.88;58.58;98432.47;2073910;28;19931;-54
2023/03/03 05:18:23;;;;;;;;;;;;;;;15.88;58.45;98433.34;2069938;28;19933;-52
2023/03/03 05:19:25;;;;;;;;;;;;;;;15.89;58.46;98434.16;2073524;28;19983;-51
2023/03/03 05:20:25;;;;;;;;;;;;;;;15.91;58.57;98434.78;2073757;28;20815;-52
2023/03/03 05:21:27;;;;;;;;;;;;;;;15.91;58.50;98429.44;2065541;28;19933;-56
2023/03/03 05:22:27;;;;;;;;;;;;;;;15.92;58.43;98439.94;2067958;28;20383;-51